Time;durP1;ratioP1;P1;durP2;ratioP2;P2;SDS_P1;SDS_P2;PMS_P1;PMS_P2;Temp;Humidity;BMP_temperature;BMP_pressure;BME280_temperature;BME280_humidity;BME280_pressure;Samples;Min_cycle;Max_cycle;Signal;HPM_P1;HPM_P2
2023/02/27 00:01:30;;;;;;;5.97;2.30;;;-2.30;99.90;;;;;;4177045;28;20491;-74
2023/02/27 00:03:31;;;;;;;6.43;2.00;;;-2.30;99.90;;;;;;4159626;28;20458;-73
2023/02/27 00:05:33;;;;;;;3.77;2.17;;;-2.30;99.90;;;;;;4177100;28;20881;-73
2023/02/27 00:07:35;;;;;;;5.30;2.47;;;-2.40;99.90;;;;;;4179761;28;20464;-73
2023/02/27 00:09:40;;;;;;;4.83;2.30;;;-2.40;99.90;;;;;;4177928;28;20457;-73
2023/02/27 00:11:42;;;;;;;4.23;1.97;;;-2.40;99.90;;;;;;4178870;28;20444;-74
2023/02/27 00:13:44;;;;;;;7.37;2.50;;;-2.40;99.90;;;;;;4177674;28;20483;-74
2023/02/27 00:15:46;;;;;;;4.60;1.87;;;-2.40;99.90;;;;;;4178306;28;20520;-74
2023/02/27 00:17:48;;;;;;;5.13;2.10;;;-2.40;99.90;;;;;;4159888;28;20485;-72
2023/02/27 00:19:50;;;;;;;3.93;1.90;;;-2.00;99.90;;;;;;4177303;28;20464;-73
2023/02/27 00:21:52;;;;;;;4.40;2.07;;;-1.80;99.90;;;;;;4177253;28;20958;-73
2023/02/27 00:23:54;;;;;;;4.53;2.10;;;-1.70;99.90;;;;;;4178379;28;20457;-73
2023/02/27 00:25:59;;;;;;;3.83;1.90;;;-1.60;99.90;;;;;;4175246;28;20488;-73
2023/02/27 00:28:01;;;;;;;7.87;2.40;;;-1.50;99.90;;;;;;4160197;28;20481;-74
2023/02/27 00:30:04;;;;;;;3.10;1.93;;;-1.60;99.90;;;;;;4177358;28;20453;-74
2023/02/27 00:32:06;;;;;;;4.40;2.00;;;-1.70;99.90;;;;;;4177834;28;20507;-73
2023/02/27 00:34:08;;;;;;;9.90;2.20;;;-1.70;99.90;;;;;;4178268;28;20543;-73
2023/02/27 00:36:10;;;;;;;4.77;2.00;;;-1.80;99.90;;;;;;4175344;28;20481;-74
2023/02/27 00:38:11;;;;;;;6.70;2.20;;;-1.80;99.90;;;;;;4177219;28;20481;-73
2023/02/27 00:40:14;;;;;;;5.60;1.80;;;-1.90;99.90;;;;;;4177044;28;20468;-74
2023/02/27 00:42:17;;;;;;;4.43;2.20;;;-1.90;99.90;;;;;;4177005;28;21188;-74
2023/02/27 00:44:19;;;;;;;5.70;2.40;;;-2.00;99.90;;;;;;4159907;28;21309;-74
2023/02/27 00:46:22;;;;;;;4.85;2.17;;;-2.00;99.90;;;;;;4159469;28;21078;-74
2023/02/27 00:48:24;;;;;;;3.30;2.17;;;-2.10;99.90;;;;;;4178906;28;20321;-73
2023/02/27 00:50:26;;;;;;;3.63;1.87;;;-2.20;99.90;;;;;;4161383;28;20993;-74
2023/02/27 00:52:28;;;;;;;5.33;2.00;;;-2.30;99.90;;;;;;4177076;28;20512;-72
2023/02/27 00:54:30;;;;;;;3.80;1.73;;;-2.30;99.90;;;;;;4176282;28;20448;-73
2023/02/27 00:56:33;;;;;;;4.00;2.10;;;-2.40;99.90;;;;;;4177794;28;20555;-75
2023/02/27 00:58:36;;;;;;;4.32;1.90;;;-2.50;99.90;;;;;;4178295;28;20495;-74
2023/02/27 01:00:39;;;;;;;3.30;1.80;;;-2.50;99.90;;;;;;4159095;28;20901;-74
2023/02/27 01:02:41;;;;;;;3.72;1.80;;;-2.60;99.90;;;;;;4175778;28;20493;-74
2023/02/27 01:04:43;;;;;;;6.60;2.07;;;-2.60;99.90;;;;;;4176153;28;20206;-74
2023/02/27 01:06:44;;;;;;;5.13;2.20;;;-2.60;99.90;;;;;;4173584;28;20453;-73
2023/02/27 01:08:46;;;;;;;4.90;2.08;;;-2.60;99.90;;;;;;4174802;28;20464;-73
2023/02/27 01:10:48;;;;;;;3.97;1.97;;;-2.60;99.90;;;;;;4176324;28;20309;-74
2023/02/27 01:12:50;;;;;;;7.38;1.90;;;-2.70;99.90;;;;;;4175049;28;20460;-74
2023/02/27 01:14:53;;;;;;;5.47;2.03;;;-2.70;99.90;;;;;;4176351;28;20253;-74
2023/02/27 01:16:56;;;;;;;4.47;1.97;;;-2.70;99.90;;;;;;4158546;28;20611;-73
2023/02/27 01:18:58;;;;;;;3.60;1.80;;;-2.70;99.90;;;;;;4176384;28;20496;-74
2023/02/27 01:21:00;;;;;;;3.87;2.40;;;-2.70;99.90;;;;;;4175067;28;20543;-74
2023/02/27 01:23:02;;;;;;;5.47;2.07;;;-2.80;99.90;;;;;;4176750;28;20563;-73
2023/02/27 01:25:04;;;;;;;5.17;2.33;;;-2.80;99.90;;;;;;4176836;28;20473;-74
2023/02/27 01:27:06;;;;;;;4.33;2.00;;;-2.80;99.90;;;;;;4173974;28;20496;-73
2023/02/27 01:29:08;;;;;;;4.43;2.00;;;-2.80;99.90;;;;;;4175688;28;20463;-73
2023/02/27 01:31:12;;;;;;;2.90;1.75;;;-2.80;99.90;;;;;;4177079;28;20540;-74
2023/02/27 01:33:14;;;;;;;5.57;2.07;;;-2.90;99.90;;;;;;4175366;28;20293;-72
2023/02/27 01:35:16;;;;;;;3.80;1.80;;;-2.90;99.90;;;;;;4176240;28;20511;-72
2023/02/27 01:37:18;;;;;;;3.50;2.08;;;-2.90;99.90;;;;;;4177445;28;20782;-73
2023/02/27 01:39:20;;;;;;;4.50;1.93;;;-2.90;99.90;;;;;;4177445;28;20206;-73
2023/02/27 01:41:22;;;;;;;4.03;1.80;;;-2.90;99.90;;;;;;4176116;28;20559;-73
2023/02/27 01:43:24;;;;;;;3.40;1.90;;;-2.90;99.90;;;;;;4176352;28;20301;-74
2023/02/27 01:45:32;;;;;;;4.57;1.90;;;-2.90;99.90;;;;;;4176111;28;20998;-73
2023/02/27 01:47:36;;;;;;;4.07;1.87;;;-2.90;99.90;;;;;;4176832;28;20456;-74
2023/02/27 01:49:38;;;;;;;4.10;1.93;;;-2.90;99.90;;;;;;4174974;28;20460;-71
2023/02/27 01:51:44;;;;;;;3.65;1.80;;;-2.90;99.90;;;;;;4175740;28;20581;-72
2023/02/27 01:53:49;;;;;;;4.67;2.37;;;-2.90;99.90;;;;;;4174835;28;20210;-72
2023/02/27 01:55:53;;;;;;;3.55;1.95;;;-2.80;99.90;;;;;;4175822;28;20531;-74
2023/02/27 01:57:55;;;;;;;5.87;2.30;;;-2.80;99.90;;;;;;4175928;28;20253;-72
2023/02/27 01:59:57;;;;;;;4.30;2.23;;;-2.70;99.90;;;;;;4175839;28;20977;-73
2023/02/27 02:02:01;;;;;;;3.63;2.07;;;-2.70;99.90;;;;;;4175582;28;20449;-72
2023/02/27 02:04:11;;;;;;;5.10;2.40;;;-2.60;99.90;;;;;;4176111;28;20471;-73
2023/02/27 02:06:12;;;;;;;3.70;1.90;;;-2.60;99.90;;;;;;4175844;28;20487;-74
2023/02/27 02:08:18;;;;;;;5.47;2.60;;;-2.50;99.90;;;;;;4173828;28;20461;-74
2023/02/27 02:10:22;;;;;;;3.85;2.30;;;-2.50;99.90;;;;;;4174179;28;20461;-72
2023/02/27 02:12:27;;;;;;;4.53;1.83;;;-2.50;99.90;;;;;;4176918;28;20210;-72
2023/02/27 02:14:29;;;;;;;3.93;1.97;;;-2.40;99.90;;;;;;4175625;28;20559;-71
2023/02/27 02:16:47;;;;;;;3.60;2.10;;;-2.40;99.90;;;;;;4175666;28;20499;-72
2023/02/27 02:18:55;;;;;;;4.80;2.20;;;-2.40;99.90;;;;;;4175212;28;21363;-74
2023/02/27 02:21:44;;;;;;;6.23;1.90;;;-2.40;99.90;;;;;;4176192;28;20942;-74
2023/02/27 02:24:29;;;;;;;4.13;2.20;;;-2.40;99.90;;;;;;4173610;28;20475;-73
2023/02/27 02:26:44;;;;;;;3.43;1.70;;;-2.30;99.90;;;;;;4174995;28;20453;-74
2023/02/27 02:29:13;;;;;;;4.77;1.80;;;-2.30;99.90;;;;;;4174600;28;20465;-73
2023/02/27 02:31:46;;;;;;;2.87;1.70;;;-2.30;99.90;;;;;;4170859;28;20910;-73
2023/02/27 02:34:31;;;;;;;3.10;1.80;;;-2.30;99.90;;;;;;4174960;28;20471;-73
2023/02/27 02:37:02;;;;;;;3.20;1.60;;;-2.20;99.90;;;;;;4175205;28;20510;-74
2023/02/27 02:39:17;;;;;;;4.50;1.87;;;-2.20;99.90;;;;;;4169491;28;20467;-73
2023/02/27 02:41:28;;;;;;;3.13;1.57;;;-2.20;99.90;;;;;;4176965;28;20563;-73
2023/02/27 02:43:38;;;;;;;6.20;1.90;;;-2.20;99.90;;;;;;4171219;28;20465;-72
2023/02/27 02:45:50;;;;;;;3.27;1.80;;;-2.10;99.90;;;;;;4174581;28;20934;-73
2023/02/27 02:48:01;;;;;;;4.47;1.50;;;-2.10;99.90;;;;;;4175917;28;20475;-74
2023/02/27 02:50:10;;;;;;;3.80;2.43;;;-2.10;99.90;;;;;;4176534;28;21277;-74
2023/02/27 02:52:19;;;;;;;2.70;1.80;;;-2.10;99.90;;;;;;4173778;28;20982;-72
2023/02/27 02:54:31;;;;;;;3.67;1.90;;;-2.10;99.90;;;;;;4174270;28;20966;-73
2023/02/27 02:56:37;;;;;;;2.93;1.70;;;-2.00;99.90;;;;;;4176403;28;20489;-73
2023/02/27 02:58:45;;;;;;;2.27;1.77;;;-2.00;99.90;;;;;;4175494;28;20465;-73
2023/02/27 03:00:54;;;;;;;3.33;1.63;;;-2.00;99.90;;;;;;4174424;28;20562;-74
2023/02/27 03:03:01;;;;;;;2.53;1.60;;;-2.00;99.90;;;;;;4175334;28;20593;-74
2023/02/27 03:05:08;;;;;;;2.03;1.27;;;-2.00;99.90;;;;;;4173589;28;21028;-73
2023/02/27 03:07:13;;;;;;;4.23;1.80;;;-2.00;99.90;;;;;;4175904;28;20950;-74
2023/02/27 03:09:20;;;;;;;2.17;1.40;;;-1.90;99.90;;;;;;4174846;28;20462;-73
2023/02/27 03:11:27;;;;;;;4.47;1.80;;;-1.90;99.90;;;;;;4176673;28;20955;-73
2023/02/27 03:13:32;;;;;;;3.97;1.50;;;-1.90;99.90;;;;;;4173315;28;20476;-73
2023/02/27 03:15:40;;;;;;;2.40;1.50;;;-1.90;99.90;;;;;;4175400;28;20486;-70
2023/02/27 03:17:47;;;;;;;3.27;1.73;;;-1.80;99.90;;;;;;4171580;28;20492;-69
2023/02/27 03:19:54;;;;;;;3.07;1.80;;;-1.90;99.90;;;;;;4177728;28;20452;-70
2023/02/27 03:22:01;;;;;;;4.80;1.80;;;-1.80;99.90;;;;;;4174459;28;20992;-70
2023/02/27 03:24:07;;;;;;;2.67;1.70;;;-1.80;99.90;;;;;;4156089;28;20467;-72
2023/02/27 03:26:11;;;;;;;4.13;1.83;;;-1.80;99.90;;;;;;4173314;28;20469;-70
2023/02/27 03:28:20;;;;;;;4.83;1.80;;;-1.80;99.90;;;;;;4176887;28;20449;-71
2023/02/27 03:30:28;;;;;;;3.43;2.00;;;-1.80;99.90;;;;;;4180917;28;20452;-69
2023/02/27 03:32:36;;;;;;;3.93;1.70;;;-1.80;99.90;;;;;;4179823;28;20464;-70
2023/02/27 03:34:41;;;;;;;3.90;2.27;;;-1.70;99.90;;;;;;4178745;28;20537;-71
2023/02/27 03:36:48;;;;;;;5.00;1.80;;;-1.70;99.90;;;;;;4181583;28;20797;-71
2023/02/27 03:38:55;;;;;;;2.93;1.60;;;-1.70;99.90;;;;;;4178081;28;20543;-70
2023/02/27 03:41:08;;;;;;;4.43;1.90;;;-1.70;99.90;;;;;;4178383;28;20465;-70
2023/02/27 03:43:20;;;;;;;4.93;1.80;;;-1.60;99.90;;;;;;4171540;28;20459;-69
2023/02/27 03:45:32;;;;;;;4.80;2.17;;;-1.60;99.90;;;;;;4161782;28;20484;-72
2023/02/27 03:47:34;;;;;;;4.63;2.13;;;-1.60;99.90;;;;;;4177507;28;20460;-70
2023/02/27 03:49:36;;;;;;;2.23;1.50;;;-1.60;99.90;;;;;;4178491;28;21042;-70
2023/02/27 03:51:38;;;;;;;2.93;1.50;;;-1.60;99.90;;;;;;4174010;28;20844;-70
2023/02/27 03:53:47;;;;;;;2.83;1.47;;;-1.60;99.90;;;;;;4176503;28;20470;-71
2023/02/27 03:55:51;;;;;;;5.20;2.57;;;-1.60;99.90;;;;;;4179935;28;20473;-72
2023/02/27 03:57:53;;;;;;;4.10;1.90;;;-1.50;99.90;;;;;;4176891;28;20520;-70
2023/02/27 03:59:57;;;;;;;4.23;2.03;;;-1.50;99.90;;;;;;4180213;28;20892;-72
2023/02/27 04:02:01;;;;;;;6.10;1.77;;;-1.50;99.90;;;;;;4181147;28;20493;-71
2023/02/27 04:04:08;;;;;;;3.23;1.70;;;-1.50;99.90;;;;;;4178957;28;20871;-71
2023/02/27 04:08:49;;;;;;;3.97;1.97;;;-1.50;99.90;;;;;;4175630;28;20493;-70
2023/02/27 04:11:07;;;;;;;4.43;1.97;;;-1.50;99.90;;;;;;4163275;28;20454;-70
2023/02/27 04:13:47;;;;;;;4.40;1.80;;;-1.50;99.90;;;;;;4175601;28;20492;-70
2023/02/27 04:16:14;;;;;;;5.90;1.93;;;-1.40;99.90;;;;;;4171318;28;20476;-69
2023/02/27 04:18:23;;;;;;;3.13;1.70;;;-1.40;99.90;;;;;;4179165;28;20530;-72
2023/02/27 04:20:42;;;;;;;4.77;1.97;;;-1.40;99.90;;;;;;4176334;28;20476;-69
2023/02/27 04:22:48;;;;;;;4.00;2.00;;;-1.40;99.90;;;;;;4177441;28;20461;-69
2023/02/27 04:25:00;;;;;;;3.23;1.80;;;-1.40;99.90;;;;;;4180952;28;20548;-71
2023/02/27 04:27:09;;;;;;;4.67;1.90;;;-1.40;99.90;;;;;;4174731;28;20439;-74
2023/02/27 04:29:17;;;;;;;3.17;1.37;;;-1.40;99.90;;;;;;4179688;28;20481;-71
2023/02/27 04:31:25;;;;;;;5.87;1.67;;;-1.40;99.90;;;;;;4180085;28;20547;-70
2023/02/27 04:33:35;;;;;;;5.07;1.93;;;-1.30;99.90;;;;;;4162188;28;20476;-71
2023/02/27 04:35:40;;;;;;;3.10;1.60;;;-1.30;99.90;;;;;;4178757;28;20505;-70
2023/02/27 04:37:48;;;;;;;5.27;1.83;;;-1.30;99.90;;;;;;4179591;28;20919;-72
2023/02/27 04:39:54;;;;;;;2.53;1.70;;;-1.30;99.90;;;;;;4179646;28;20799;-69
2023/02/27 04:41:59;;;;;;;4.73;1.50;;;-1.30;99.90;;;;;;4178784;28;20494;-70
2023/02/27 04:44:03;;;;;;;3.13;1.60;;;-1.30;99.90;;;;;;4179835;28;20446;-72
2023/02/27 04:46:08;;;;;;;3.07;1.70;;;-1.30;99.90;;;;;;4176535;28;21003;-70
2023/02/27 04:48:18;;;;;;;3.37;1.60;;;-1.30;99.90;;;;;;4174850;28;20553;-69
2023/02/27 04:50:25;;;;;;;4.17;1.80;;;-1.30;99.90;;;;;;4175133;28;20482;-70
2023/02/27 04:52:31;;;;;;;2.50;1.40;;;-1.30;99.90;;;;;;4171752;28;20983;-69
2023/02/27 04:54:39;;;;;;;3.87;1.77;;;-1.30;99.90;;;;;;4174798;28;20456;-71
2023/02/27 04:56:46;;;;;;;3.83;1.70;;;-1.30;99.90;;;;;;4179710;28;20442;-71
2023/02/27 04:58:51;;;;;;;2.40;1.60;;;-1.20;99.90;;;;;;4179270;28;20518;-70
2023/02/27 05:00:59;;;;;;;2.60;1.33;;;-1.30;99.90;;;;;;4174373;28;20575;-70
2023/02/27 05:03:06;;;;;;;3.13;1.77;;;-1.20;99.90;;;;;;4175640;28;20892;-70
2023/02/27 05:05:14;;;;;;;5.40;2.67;;;-1.30;99.90;;;;;;4179701;28;20506;-71
2023/02/27 05:07:20;;;;;;;4.50;2.40;;;-1.20;99.90;;;;;;4177059;28;20524;-70
2023/02/27 05:09:26;;;;;;;6.50;2.67;;;-1.20;99.90;;;;;;4176358;28;20868;-72
2023/02/27 05:11:33;;;;;;;4.37;2.40;;;-1.20;99.90;;;;;;4161552;28;20490;-71
2023/02/27 05:13:40;;;;;;;4.83;2.40;;;-1.20;99.90;;;;;;4171990;28;20541;-70
2023/02/27 05:15:47;;;;;;;4.87;2.50;;;-1.20;99.90;;;;;;4161389;28;21246;-70
2023/02/27 05:17:55;;;;;;;4.53;2.40;;;-1.20;99.90;;;;;;4173122;28;20498;-72
2023/02/27 05:19:58;;;;;;;4.60;2.40;;;-1.20;99.90;;;;;;4172344;28;20461;-71
2023/02/27 05:22:14;;;;;;;4.73;2.40;;;-1.20;99.90;;;;;;4177089;28;20446;-71
2023/02/27 05:24:29;;;;;;;4.03;1.90;;;-1.20;99.90;;;;;;4173406;28;20489;-71
2023/02/27 05:26:45;;;;;;;6.33;2.40;;;-1.20;99.90;;;;;;4176878;28;20970;-71
2023/02/27 05:28:53;;;;;;;5.43;2.07;;;-1.20;99.90;;;;;;4173174;28;20821;-71
2023/02/27 05:31:02;;;;;;;4.87;1.67;;;-1.20;99.90;;;;;;4176410;28;20534;-71
2023/02/27 05:33:08;;;;;;;3.73;2.00;;;-1.20;99.90;;;;;;4172518;28;21010;-76
2023/02/27 05:35:18;;;;;;;4.50;2.00;;;-1.20;99.90;;;;;;4161851;28;20470;-70
2023/02/27 05:37:26;;;;;;;4.33;2.27;;;-1.30;99.90;;;;;;4171399;28;20455;-69
2023/02/27 05:39:30;;;;;;;8.20;1.90;;;-1.30;99.90;;;;;;4176229;28;20821;-70
2023/02/27 05:41:36;;;;;;;4.27;2.07;;;-1.40;99.90;;;;;;4173550;28;20533;-70
2023/02/27 05:43:44;;;;;;;3.40;1.87;;;-1.40;99.90;;;;;;4177731;28;20460;-70
2023/02/27 05:45:50;;;;;;;3.33;1.90;;;-1.40;99.90;;;;;;4177665;28;20901;-69
2023/02/27 05:47:58;;;;;;;6.30;2.40;;;-1.50;99.90;;;;;;4178212;28;20814;-70
2023/02/27 05:50:06;;;;;;;7.40;2.20;;;-1.50;99.90;;;;;;4179175;28;20448;-71
2023/02/27 05:52:12;;;;;;;6.10;2.47;;;-1.50;99.90;;;;;;4173405;28;20534;-74
2023/02/27 05:54:22;;;;;;;3.60;2.03;;;-1.50;99.90;;;;;;4171607;28;20855;-73
2023/02/27 05:56:26;;;;;;;6.63;2.80;;;-1.60;99.90;;;;;;4169536;28;20931;-72
2023/02/27 05:58:32;;;;;;;6.73;2.50;;;-1.60;99.90;;;;;;4171274;28;20532;-71
2023/02/27 06:00:39;;;;;;;5.27;2.60;;;-1.70;99.90;;;;;;4171198;28;20546;-71
2023/02/27 06:02:42;;;;;;;6.30;2.60;;;-1.70;99.90;;;;;;4175023;28;20445;-71
2023/02/27 06:04:44;;;;;;;3.03;2.10;;;-1.70;99.90;;;;;;4157346;28;20469;-75
2023/02/27 06:06:46;;;;;;;4.00;2.50;;;-1.80;99.90;;;;;;4170560;28;20516;-71
2023/02/27 06:08:48;;;;;;;4.33;2.10;;;-1.80;99.90;;;;;;4172748;28;20579;-70
2023/02/27 06:10:51;;;;;;;5.37;2.20;;;-1.80;99.90;;;;;;4170518;28;20526;-70
2023/02/27 06:12:53;;;;;;;3.80;2.00;;;-1.80;99.90;;;;;;4153007;28;21077;-70
2023/02/27 06:14:55;;;;;;;3.13;1.87;;;-1.80;99.90;;;;;;4169790;28;20480;-71
2023/02/27 06:16:57;;;;;;;4.33;2.00;;;-1.90;99.90;;;;;;4155352;28;20463;-70
2023/02/27 06:19:00;;;;;;;3.63;1.90;;;-1.90;99.90;;;;;;4171293;28;21102;-75
2023/02/27 06:21:03;;;;;;;5.13;2.00;;;-1.90;99.90;;;;;;4157866;28;20509;-71
2023/02/27 06:23:06;;;;;;;3.83;2.30;;;-1.90;99.90;;;;;;4174793;28;20447;-70
2023/02/27 06:25:08;;;;;;;2.70;1.60;;;-1.80;99.90;;;;;;4172732;28;20480;-71
2023/02/27 06:27:12;;;;;;;5.60;2.23;;;-1.90;99.90;;;;;;4173798;28;20474;-71
2023/02/27 06:29:14;;;;;;;3.27;1.80;;;-1.90;99.90;;;;;;4173482;28;20460;-70
2023/02/27 06:31:15;;;;;;;4.23;2.00;;;-1.90;99.90;;;;;;4171025;28;20511;-71
2023/02/27 06:33:17;;;;;;;3.60;2.13;;;-1.90;99.90;;;;;;4169787;28;20452;-72
2023/02/27 06:35:20;;;;;;;4.33;2.43;;;-1.90;99.90;;;;;;4160292;28;20512;-73
2023/02/27 06:37:22;;;;;;;6.97;2.70;;;-1.90;99.90;;;;;;4173492;28;20571;-71
2023/02/27 06:39:24;;;;;;;5.57;2.40;;;-1.90;99.90;;;;;;4168732;28;21005;-72
2023/02/27 06:41:27;;;;;;;5.37;2.27;;;-1.80;99.90;;;;;;4171037;28;20969;-71
2023/02/27 06:43:33;;;;;;;3.83;2.17;;;-1.80;99.90;;;;;;4171163;28;20520;-72
2023/02/27 06:45:35;;;;;;;6.27;2.33;;;-1.80;99.90;;;;;;4170272;28;20478;-71
2023/02/27 06:47:38;;;;;;;4.73;2.10;;;-1.80;99.90;;;;;;4173145;28;21316;-71
2023/02/27 06:49:40;;;;;;;4.67;2.30;;;-1.70;99.90;;;;;;4176430;28;20456;-73
2023/02/27 06:51:42;;;;;;;4.57;2.27;;;-1.70;99.90;;;;;;4174712;28;20454;-70
2023/02/27 06:53:43;;;;;;;4.57;2.17;;;-1.70;99.90;;;;;;4174444;28;20501;-70
2023/02/27 06:55:45;;;;;;;5.30;2.37;;;-1.70;99.90;;;;;;4171741;28;20477;-76
2023/02/27 06:57:47;;;;;;;6.73;2.47;;;-0.80;99.90;;;;;;4175517;28;20484;-73
2023/02/27 06:59:51;;;;;;;5.10;2.33;;;-1.60;99.90;;;;;;4169358;28;21074;-71
2023/02/27 07:01:54;;;;;;;7.63;2.63;;;-1.50;99.90;;;;;;4171742;28;20460;-71
2023/02/27 07:03:56;;;;;;;3.87;2.20;;;-1.40;99.90;;;;;;4179588;28;20455;-70
2023/02/27 07:05:58;;;;;;;4.80;2.43;;;-1.40;99.90;;;;;;4181045;28;20846;-71
2023/02/27 07:08:00;;;;;;;6.63;2.70;;;-1.40;99.90;;;;;;4182191;28;20527;-71
2023/02/27 07:10:02;;;;;;;5.63;2.30;;;-1.30;99.90;;;;;;4179883;28;20508;-71
2023/02/27 07:12:04;;;;;;;5.07;2.70;;;-1.30;99.90;;;;;;4178473;28;20577;-71
2023/02/27 07:14:06;;;;;;;2.90;2.03;;;-1.20;99.90;;;;;;4180104;28;20467;-70
2023/02/27 07:16:09;;;;;;;4.33;2.30;;;-1.20;99.90;;;;;;4181621;28;20512;-72
2023/02/27 07:18:11;;;;;;;4.87;2.47;;;-1.20;99.90;;;;;;4178188;28;20887;-71
2023/02/27 07:20:13;;;;;;;6.10;2.30;;;-1.20;99.90;;;;;;4179125;28;20492;-72
2023/02/27 07:22:15;;;;;;;6.40;2.30;;;-1.10;99.90;;;;;;4183596;28;20525;-76
2023/02/27 07:24:17;;;;;;;6.13;2.33;;;-1.10;99.90;;;;;;4183220;28;20459;-71
2023/02/27 07:26:19;;;;;;;3.90;2.50;;;-1.10;99.90;;;;;;4176722;28;20530;-74
2023/02/27 07:28:21;;;;;;;6.10;2.30;;;-1.10;99.90;;;;;;4179295;28;20454;-73
2023/02/27 07:30:23;;;;;;;3.77;2.37;;;-1.00;99.90;;;;;;4181646;28;20541;-71
2023/02/27 07:32:27;;;;;;;7.33;2.57;;;-1.00;99.90;;;;;;4175378;28;20951;-70
2023/02/27 07:34:29;;;;;;;6.27;2.70;;;-1.00;99.90;;;;;;4179243;28;20884;-70
2023/02/27 07:36:31;;;;;;;4.63;2.20;;;-1.00;99.90;;;;;;4177197;28;20479;-72
2023/02/27 07:38:33;;;;;;;5.53;2.77;;;-1.00;99.90;;;;;;4177576;28;20761;-69
2023/02/27 07:40:35;;;;;;;6.93;3.40;;;-0.90;99.90;;;;;;4177188;28;20865;-70
2023/02/27 07:42:37;;;;;;;6.47;2.90;;;-0.90;99.90;;;;;;4176506;28;20536;-70
2023/02/27 07:44:39;;;;;;;5.20;2.53;;;-0.90;99.90;;;;;;4174501;28;20874;-70
2023/02/27 07:46:41;;;;;;;6.73;2.83;;;-0.80;99.90;;;;;;4174823;28;20452;-69
2023/02/27 07:48:44;;;;;;;7.87;3.07;;;-0.80;99.90;;;;;;4178025;28;20458;-72
2023/02/27 07:50:46;;;;;;;3.80;2.30;;;-0.80;99.90;;;;;;4172903;28;21139;-74
2023/02/27 07:52:48;;;;;;;7.47;2.60;;;-0.80;99.90;;;;;;4173622;28;20553;-72
2023/02/27 07:54:50;;;;;;;7.03;3.10;;;-0.70;99.90;;;;;;4178969;28;20535;-70
2023/02/27 07:56:52;;;;;;;5.93;2.97;;;-0.70;99.90;;;;;;4177419;28;20446;-72
2023/02/27 07:58:54;;;;;;;6.03;2.80;;;-0.60;99.90;;;;;;4175555;28;20597;-70
2023/02/27 08:00:56;;;;;;;4.37;2.30;;;-0.60;99.90;;;;;;4176580;28;20468;-70
2023/02/27 08:02:59;;;;;;;4.73;2.57;;;-0.50;99.90;;;;;;4175605;28;20502;-70
2023/02/27 08:05:02;;;;;;;7.93;2.10;;;-0.50;99.90;;;;;;4161758;28;20470;-70
2023/02/27 08:07:04;;;;;;;5.77;2.20;;;-0.40;99.90;;;;;;4176532;28;20905;-70
2023/02/27 08:09:06;;;;;;;7.23;2.27;;;-0.40;99.90;;;;;;4179001;28;20454;-71
2023/02/27 08:11:10;;;;;;;5.73;2.07;;;-0.30;99.90;;;;;;4163181;28;20545;-76
2023/02/27 08:13:12;;;;;;;4.90;2.07;;;-0.30;99.90;;;;;;4174749;28;20516;-70
2023/02/27 08:15:16;;;;;;;3.83;1.90;;;-0.20;99.90;;;;;;4174136;28;20518;-69
2023/02/27 08:17:18;;;;;;;6.67;2.00;;;-0.20;99.90;;;;;;4175827;28;20448;-71
2023/02/27 08:19:20;;;;;;;4.60;2.20;;;-0.20;99.90;;;;;;4177783;28;20582;-71
2023/02/27 08:21:23;;;;;;;4.77;2.00;;;-0.10;99.90;;;;;;4174768;28;20449;-71
2023/02/27 08:23:25;;;;;;;3.77;2.07;;;-0.10;99.90;;;;;;4162157;28;21330;-72
2023/02/27 08:25:27;;;;;;;5.20;2.13;;;0.00;99.90;;;;;;4179131;28;20485;-72
2023/02/27 08:27:29;;;;;;;4.50;2.00;;;0.10;99.90;;;;;;4176347;28;20479;-70
2023/02/27 08:29:31;;;;;;;5.87;2.20;;;0.00;99.90;;;;;;4177903;28;20924;-70
2023/02/27 08:31:33;;;;;;;7.50;2.47;;;0.10;99.90;;;;;;4175763;28;20486;-71
2023/02/27 08:33:35;;;;;;;5.20;2.10;;;0.10;99.90;;;;;;4174239;28;20541;-70
2023/02/27 08:35:37;;;;;;;9.40;2.40;;;0.10;99.90;;;;;;4173593;28;20482;-71
2023/02/27 08:37:40;;;;;;;3.40;2.10;;;0.10;99.90;;;;;;4173667;28;21004;-70
2023/02/27 08:39:42;;;;;;;4.23;2.50;;;0.20;99.90;;;;;;4171326;28;20557;-71
2023/02/27 08:41:45;;;;;;;4.10;1.97;;;0.20;99.90;;;;;;4170730;28;20455;-71
2023/02/27 08:43:47;;;;;;;3.77;2.00;;;0.20;99.90;;;;;;4169882;28;20496;-71
2023/02/27 08:45:49;;;;;;;4.73;2.10;;;0.20;99.90;;;;;;4173889;28;21317;-71
2023/02/27 08:47:51;;;;;;;3.73;2.00;;;0.20;99.90;;;;;;4172414;28;20546;-70
2023/02/27 08:49:55;;;;;;;3.77;2.17;;;0.20;99.90;;;;;;4177926;28;20483;-70
2023/02/27 08:51:57;;;;;;;7.67;2.47;;;0.30;99.90;;;;;;4173625;28;20964;-70
2023/02/27 08:54:00;;;;;;;4.33;2.23;;;0.30;99.90;;;;;;4171972;28;21182;-71
2023/02/27 08:56:02;;;;;;;5.90;2.07;;;0.30;99.90;;;;;;4173572;28;20580;-73
2023/02/27 08:58:04;;;;;;;3.77;1.90;;;0.30;99.90;;;;;;4171964;28;20487;-71
2023/02/27 09:00:07;;;;;;;5.17;1.90;;;0.30;99.90;;;;;;4175579;28;20483;-70
2023/02/27 09:02:10;;;;;;;3.90;1.97;;;0.40;99.90;;;;;;4172075;28;20507;-72
2023/02/27 09:04:11;;;;;;;4.60;1.83;;;0.40;99.90;;;;;;4173668;28;21366;-71
2023/02/27 09:06:13;;;;;;;6.47;2.23;;;0.40;99.90;;;;;;4168609;28;21245;-71
2023/02/27 09:08:15;;;;;;;6.00;2.20;;;0.40;99.90;;;;;;4169853;28;20457;-72
2023/02/27 09:10:19;;;;;;;6.90;2.37;;;0.50;99.90;;;;;;4171411;28;20469;-75
2023/02/27 09:12:22;;;;;;;8.53;2.77;;;0.50;99.90;;;;;;4172349;28;20460;-72
2023/02/27 09:14:24;;;;;;;6.00;2.50;;;0.50;99.90;;;;;;4171768;28;20542;-74
2023/02/27 09:16:26;;;;;;;4.67;2.00;;;0.60;99.90;;;;;;4155716;28;20508;-75
2023/02/27 09:18:28;;;;;;;4.10;2.00;;;0.60;99.90;;;;;;4173449;28;20562;-73
2023/02/27 09:20:30;;;;;;;5.03;2.10;;;0.60;99.90;;;;;;4171063;28;20520;-74
2023/02/27 09:22:32;;;;;;;4.40;2.30;;;0.60;99.90;;;;;;4172088;28;20456;-73
2023/02/27 09:24:35;;;;;;;4.90;2.57;;;0.70;99.90;;;;;;4172447;28;20475;-73
2023/02/27 09:26:39;;;;;;;4.77;2.20;;;0.70;99.90;;;;;;4157200;28;20454;-73
2023/02/27 09:28:41;;;;;;;4.23;2.23;;;0.80;99.90;;;;;;4160423;28;20520;-71
2023/02/27 09:30:42;;;;;;;3.60;2.10;;;0.90;99.90;;;;;;4175810;28;20547;-70
2023/02/27 09:32:45;;;;;;;4.47;2.00;;;0.90;99.90;;;;;;4154733;28;20459;-75
2023/02/27 09:34:47;;;;;;;4.77;2.00;;;1.00;99.90;;;;;;4174720;28;20445;-74
2023/02/27 09:36:48;;;;;;;5.60;2.07;;;1.00;99.90;;;;;;4173174;28;20503;-73
2023/02/27 09:38:50;;;;;;;4.77;2.23;;;1.10;99.90;;;;;;4173041;28;20532;-74
2023/02/27 09:40:55;;;;;;;3.97;2.27;;;1.20;99.90;;;;;;4173342;28;20619;-74
2023/02/27 09:43:03;;;;;;;5.17;2.20;;;1.30;99.90;;;;;;4171779;28;21083;-74
2023/02/27 09:45:07;;;;;;;5.10;2.20;;;1.30;99.90;;;;;;4170755;28;20569;-73
2023/02/27 09:47:15;;;;;;;3.77;1.93;;;1.30;99.90;;;;;;4173086;28;20857;-74
2023/02/27 09:49:21;;;;;;;4.97;2.03;;;1.40;99.90;;;;;;4172917;28;20491;-77
2023/02/27 09:51:23;;;;;;;3.90;1.93;;;1.40;99.90;;;;;;4172454;28;20561;-75
2023/02/27 09:53:30;;;;;;;6.60;2.53;;;1.50;99.90;;;;;;4157710;28;20458;-74
2023/02/27 09:55:35;;;;;;;6.93;2.77;;;1.60;99.90;;;;;;4173881;28;20465;-73
2023/02/27 09:57:47;;;;;;;5.53;2.17;;;1.70;99.90;;;;;;4173683;28;20455;-74
2023/02/27 09:59:55;;;;;;;5.47;2.03;;;1.70;99.90;;;;;;4172253;28;20572;-74
2023/02/27 10:02:04;;;;;;;5.17;2.20;;;1.80;99.90;;;;;;4159785;28;20465;-73
2023/02/27 10:04:34;;;;;;;2.80;1.63;;;1.90;99.90;;;;;;4174700;28;20496;-72
2023/02/27 10:06:42;;;;;;;5.20;2.27;;;2.00;99.90;;;;;;4173238;28;20499;-74
2023/02/27 10:08:52;;;;;;;3.83;2.00;;;2.00;99.90;;;;;;4157100;28;20442;-72
2023/02/27 10:11:00;;;;;;;4.00;1.83;;;2.20;99.90;;;;;;4168723;28;20489;-72
2023/02/27 10:13:36;;;;;;;3.70;2.00;;;2.20;99.90;;;;;;4150498;28;20465;-73
2023/02/27 10:15:43;;;;;;;3.83;1.70;;;2.20;99.90;;;;;;4168964;28;20480;-74
2023/02/27 10:17:48;;;;;;;4.20;2.30;;;2.30;99.90;;;;;;4169314;28;20488;-74
2023/02/27 10:19:52;;;;;;;3.47;1.80;;;2.30;99.90;;;;;;4172469;28;20550;-73
2023/02/27 10:21:56;;;;;;;3.40;1.93;;;2.40;99.90;;;;;;4171909;28;20502;-73
2023/02/27 10:24:06;;;;;;;5.40;2.40;;;2.50;99.90;;;;;;4171074;28;20954;-73
2023/02/27 10:26:19;;;;;;;5.50;2.50;;;2.50;99.90;;;;;;4170305;28;20513;-74
2023/02/27 10:28:23;;;;;;;7.63;2.37;;;2.60;99.90;;;;;;4172637;28;20537;-74
2023/02/27 10:30:28;;;;;;;3.97;1.77;;;2.70;99.90;;;;;;4169867;28;20541;-74
2023/02/27 10:32:34;;;;;;;6.17;2.20;;;2.70;99.90;;;;;;4170993;28;20456;-74
2023/02/27 10:34:39;;;;;;;3.93;1.60;;;2.80;99.90;;;;;;4157352;28;21000;-71
2023/02/27 10:36:41;;;;;;;4.80;1.80;;;2.90;99.90;;;;;;4170336;28;20568;-74
2023/02/27 10:38:46;;;;;;;4.77;1.87;;;2.90;99.90;;;;;;4171167;28;20627;-73
2023/02/27 10:40:48;;;;;;;3.30;1.60;;;3.00;99.90;;;;;;4173145;28;20561;-73
2023/02/27 10:42:52;;;;;;;2.70;1.60;;;3.00;99.90;;;;;;4173303;28;20468;-74
2023/02/27 10:44:55;;;;;;;3.70;1.70;;;3.10;99.90;;;;;;4175677;28;20955;-73
2023/02/27 10:46:57;;;;;;;4.23;1.87;;;3.30;99.90;;;;;;4173058;28;20489;-73
2023/02/27 10:49:04;;;;;;;3.27;1.50;;;3.10;99.90;;;;;;4173355;28;20549;-71
2023/02/27 10:51:26;;;;;;;2.97;1.77;;;3.10;99.90;;;;;;4172337;28;20504;-75
2023/02/27 10:53:28;;;;;;;5.63;1.97;;;3.20;99.90;;;;;;4171329;28;20549;-72
2023/02/27 10:55:32;;;;;;;3.53;1.70;;;3.20;99.90;;;;;;4173214;28;20484;-72
2023/02/27 10:57:42;;;;;;;4.00;1.50;;;3.30;99.90;;;;;;4172524;28;20449;-73
2023/02/27 10:59:52;;;;;;;5.87;2.00;;;3.30;99.90;;;;;;4169119;28;21023;-73